KOZS

Camdenton Memorial-Lake Regional Airport

Camdenton, Missouri, USA
METAR KOZS 201235Z AUTO 18009KT 10SM CLR 06/03 A2995 RMK AO2
Observed Flight Rules
Jan-20 @ 12:35 UTC (33 minutes ago) Visual Flight Rules
Wind Visibility Clouds
180° at 9 knots 10 miles
  • Clear skies
Temperatures Readings
Current 6°C / 43°F
Dewpoint 3°C / 37°F
Humidity 81%
Altimeter 29.95" Hg
Pressure 1014 hPa
Elevation 324
METAR KOZS 201235Z AUTO 18009KT 10SM CLR 06/03 A2995 RMK AO2
Observed Flight Rules
Jan-20 @ 12:35 UTC
(33 minutes ago)
VFR
Wind Visibility
180° at 9 knots 10 miles
Clouds
  • Clear skies
Temperature Dewpoint
6°C / 43°F 3°C / 37°F
Humidity Altimeter Pressure
81% 29.95" Hg 1014 hPa